STN weather

London Stansted Airport
London, England, United Kingdom

Public forecast

Using degrees Celsius for public forecast. Weather courtesy of forecast.io.

Current aviation weather report (METAR) for London Stansted Airport

Retrieved 2019/10/17 04:20 UTC (33 minutes ago):

EGSS 170420Z AUTO 23005KT 9999 NCD 06/06 Q1007

Aviation forecast (TAF) for London Stansted Airport

Retrieved 2019-10-17 00:00 UTC (5 hours ago):

TAF EGSS 162254Z 1700/1806 20007KT 9999 FEW025 PROB30 1700/1708 3000 BR TEMPO 1711/1806 6000 SHRA PROB30 TEMPO 1711/1719 3000 +SHRA BKN014 TEMPO 1714/1806 19015G25KT PROB30 TEMPO 1722/1806 3000 +SHRA BKN014CB